Time;durP1;ratioP1;P1;durP2;ratioP2;P2;SDS_P1;SDS_P2;PMS_P1;PMS_P2;Temp;Humidity;BMP_temperature;BMP_pressure;BME280_temperature;BME280_humidity;BME280_pressure;Samples;Min_cycle;Max_cycle;Signal;HPM_P1;HPM_P2
2022/07/03 00:01:41;;;;;;;4.43;2.20;;;18.40;99.90;;;;;;4957502;28;20683;-71
2022/07/03 00:04:08;;;;;;;4.47;2.13;;;18.30;99.90;;;;;;4957604;28;20731;-75
2022/07/03 00:06:35;;;;;;;4.33;2.27;;;18.30;99.90;;;;;;4957892;28;20252;-71
2022/07/03 00:09:04;;;;;;;3.47;2.00;;;18.30;99.90;;;;;;4957414;28;20197;-70
2022/07/03 00:11:32;;;;;;;3.33;1.90;;;18.20;99.90;;;;;;4957539;28;20727;-75
2022/07/03 00:13:59;;;;;;;3.77;2.20;;;18.20;99.90;;;;;;4957220;28;20332;-71
2022/07/03 00:16:26;;;;;;;4.97;2.20;;;18.20;99.90;;;;;;4957151;28;20201;-71
2022/07/03 00:18:54;;;;;;;7.40;2.10;;;18.10;99.90;;;;;;4957476;28;20269;-74
2022/07/03 00:21:43;;;;;;;2.10;1.87;;;18.10;99.90;;;;;;4957762;28;20300;-71
2022/07/03 00:24:22;;;;;;;6.50;2.07;;;18.10;99.90;;;;;;4957044;28;20201;-71
2022/07/03 00:26:52;;;;;;;4.43;2.27;;;18.00;99.90;;;;;;4974869;28;20196;-72
2022/07/03 00:29:25;;;;;;;15.37;3.30;;;18.00;99.90;;;;;;4957280;28;20290;-71
2022/07/03 00:31:52;;;;;;;3.60;2.00;;;17.90;99.90;;;;;;4957236;28;20220;-70
2022/07/03 00:34:20;;;;;;;3.80;2.43;;;17.90;99.90;;;;;;4957409;28;20288;-70
2022/07/03 00:36:48;;;;;;;6.07;2.43;;;17.90;99.90;;;;;;4974417;28;20219;-72
2022/07/03 00:39:15;;;;;;;4.73;2.30;;;17.80;99.90;;;;;;4957131;28;20236;-72
2022/07/03 00:41:45;;;;;;;6.47;2.73;;;17.80;99.90;;;;;;4957267;28;20212;-72
2022/07/03 00:44:12;;;;;;;5.43;2.50;;;17.80;99.90;;;;;;4957037;28;20284;-72
2022/07/03 00:46:41;;;;;;;4.47;2.50;;;17.80;99.90;;;;;;4956989;28;20595;-75
2022/07/03 00:49:10;;;;;;;6.87;2.90;;;17.80;99.90;;;;;;4957433;28;20233;-75
2022/07/03 00:51:42;;;;;;;3.27;2.20;;;17.80;99.90;;;;;;4957025;28;20255;-71
2022/07/03 00:54:12;;;;;;;6.20;2.53;;;17.80;99.90;;;;;;4974313;28;20549;-73
2022/07/03 00:56:40;;;;;;;3.77;2.30;;;17.80;99.90;;;;;;4957031;28;20205;-75
2022/07/03 00:59:07;;;;;;;6.03;2.40;;;17.80;99.90;;;;;;4974507;28;20235;-73
2022/07/03 01:01:38;;;;;;;4.03;2.17;;;17.80;99.90;;;;;;4957171;28;20213;-76
2022/07/03 01:04:14;;;;;;;6.33;2.43;;;17.80;99.90;;;;;;4956906;28;20193;-79
2022/07/03 01:06:57;;;;;;;4.60;2.53;;;17.80;99.90;;;;;;4961224;28;20232;-80
2022/07/03 01:09:43;;;;;;;4.27;2.20;;;17.80;99.90;;;;;;4957609;28;20300;-71
2022/07/03 01:12:31;;;;;;;3.23;2.30;;;17.80;99.90;;;;;;4975325;28;20279;-83
2022/07/03 01:15:32;;;;;;;8.23;3.37;;;17.80;99.90;;;;;;4956907;28;20288;-83
2022/07/03 01:18:17;;;;;;;6.47;3.00;;;17.80;99.90;;;;;;4934815;28;20233;-72
2022/07/03 01:20:59;;;;;;;3.00;2.50;;;17.90;99.90;;;;;;4956917;28;20658;-76
2022/07/03 01:23:52;;;;;;;6.57;3.00;;;17.90;99.90;;;;;;4956859;28;20566;-83
2022/07/03 01:26:20;;;;;;;10.07;2.67;;;17.90;99.90;;;;;;4917361;29;20229;-71
2022/07/03 01:28:47;;;;;;;5.77;2.63;;;17.90;99.90;;;;;;4935267;29;20289;-74
2022/07/03 01:31:20;;;;;;;7.20;2.80;;;17.80;99.90;;;;;;4921059;29;20628;-74
2022/07/03 01:33:50;;;;;;;4.30;2.73;;;17.90;99.90;;;;;;4921461;29;20699;-70
2022/07/03 01:36:19;;;;;;;4.70;2.80;;;17.90;99.90;;;;;;4921100;29;20195;-70
2022/07/03 01:38:49;;;;;;;3.77;2.57;;;17.80;99.90;;;;;;4937020;29;20305;-70
2022/07/03 01:41:16;;;;;;;6.70;2.60;;;17.80;99.90;;;;;;4936814;29;20278;-71
2022/07/03 01:43:56;;;;;;;3.93;2.30;;;17.80;99.90;;;;;;4921001;29;20289;-75
2022/07/03 01:46:31;;;;;;;10.90;2.93;;;17.80;99.90;;;;;;4920854;29;20634;-70
2022/07/03 01:48:59;;;;;;;4.77;2.90;;;17.80;99.90;;;;;;4921019;29;20607;-71
2022/07/03 01:51:26;;;;;;;4.33;2.60;;;17.80;99.90;;;;;;4921022;29;20226;-77
2022/07/03 01:53:54;;;;;;;5.07;2.73;;;17.80;99.90;;;;;;4920747;29;20694;-71
2022/07/03 01:56:22;;;;;;;4.43;2.47;;;17.70;99.90;;;;;;4920950;29;20269;-71
2022/07/03 01:58:49;;;;;;;4.43;2.90;;;17.70;99.90;;;;;;4936494;29;20232;-72
2022/07/03 02:01:26;;;;;;;5.20;3.00;;;17.70;99.90;;;;;;4920608;29;20217;-71
2022/07/03 02:04:30;;;;;;;6.77;2.70;;;17.70;99.90;;;;;;4949370;28;20206;-71
2022/07/03 02:07:17;;;;;;;3.57;2.47;;;17.70;99.90;;;;;;4959828;28;20205;-72
2022/07/03 02:09:54;;;;;;;6.10;2.50;;;17.60;99.90;;;;;;4976949;28;20616;-71
2022/07/03 02:12:30;;;;;;;6.63;2.90;;;17.60;99.90;;;;;;4959495;28;20332;-71
2022/07/03 02:15:07;;;;;;;4.10;2.53;;;17.60;99.90;;;;;;4959864;28;20275;-72
2022/07/03 02:17:54;;;;;;;3.60;2.60;;;17.60;99.90;;;;;;4959595;28;20225;-73
2022/07/03 02:20:22;;;;;;;5.97;2.40;;;17.60;99.90;;;;;;4959654;28;20198;-73
2022/07/03 02:22:59;;;;;;;11.93;2.70;;;17.60;99.90;;;;;;4977083;28;20189;-70
2022/07/03 02:25:32;;;;;;;13.17;3.53;;;17.50;99.90;;;;;;4959585;28;20288;-71
2022/07/03 02:28:24;;;;;;;2.87;2.03;;;17.50;99.90;;;;;;4959763;28;20211;-70
2022/07/03 02:30:57;;;;;;;5.60;2.20;;;17.50;99.90;;;;;;4960067;28;20240;-72
2022/07/03 02:33:26;;;;;;;7.17;2.60;;;17.50;99.90;;;;;;4959310;28;20543;-73
2022/07/03 02:35:55;;;;;;;4.87;2.40;;;17.50;99.90;;;;;;4959607;28;20220;-74
2022/07/03 02:38:24;;;;;;;3.87;2.13;;;17.50;99.90;;;;;;4959200;28;20221;-73
2022/07/03 02:41:19;;;;;;;5.17;2.30;;;17.40;99.90;;;;;;4959027;28;20293;-71
2022/07/03 02:44:10;;;;;;;3.37;2.00;;;17.40;99.90;;;;;;4975168;28;20205;-73
2022/07/03 02:46:51;;;;;;;5.57;2.20;;;17.40;99.90;;;;;;4959168;28;20260;-75
2022/07/03 02:49:45;;;;;;;5.20;2.30;;;17.50;99.90;;;;;;4959178;28;20193;-74
2022/07/03 02:52:44;;;;;;;2.57;1.87;;;17.50;99.90;;;;;;4959145;28;20211;-76
2022/07/03 02:55:30;;;;;;;4.43;2.20;;;17.50;99.90;;;;;;4959337;28;20647;-72
2022/07/03 02:58:28;;;;;;;4.63;2.10;;;17.50;99.90;;;;;;4959367;28;20691;-73
2022/07/03 03:01:08;;;;;;;3.73;1.87;;;17.60;99.90;;;;;;4958794;28;20303;-75
2022/07/03 03:03:39;;;;;;;5.97;2.20;;;17.60;99.90;;;;;;4958824;28;20186;-73
2022/07/03 03:06:14;;;;;;;6.00;2.10;;;17.60;99.90;;;;;;4976091;28;20197;-76
2022/07/03 03:08:59;;;;;;;3.73;2.00;;;17.60;99.90;;;;;;4958824;28;20225;-77
2022/07/03 03:11:40;;;;;;;5.60;1.97;;;17.60;99.90;;;;;;4958959;28;20197;-85
2022/07/03 03:14:13;;;;;;;5.40;2.30;;;17.60;99.90;;;;;;4984397;28;20228;-85
2022/07/03 03:17:02;;;;;;;3.33;1.90;;;17.60;99.90;;;;;;4958968;28;20296;-86
2022/07/03 03:19:32;;;;;;;2.90;2.03;;;17.50;99.90;;;;;;4975986;28;20215;-85
2022/07/03 03:22:15;;;;;;;2.40;1.70;;;17.50;99.90;;;;;;4976351;28;20556;-85
2022/07/03 03:24:43;;;;;;;4.33;1.80;;;17.50;99.90;;;;;;4958627;28;20229;-71
2022/07/03 03:27:10;;;;;;;5.80;1.93;;;17.60;99.90;;;;;;4975641;28;20217;-73
2022/07/03 03:29:39;;;;;;;4.73;1.80;;;17.70;99.90;;;;;;4958279;28;20197;-72
2022/07/03 03:32:06;;;;;;;3.67;1.77;;;17.60;99.90;;;;;;4958022;28;20225;-71
2022/07/03 03:34:34;;;;;;;3.20;1.97;;;17.60;99.90;;;;;;4958493;28;20218;-75
2022/07/03 03:37:01;;;;;;;3.80;1.80;;;17.60;99.90;;;;;;4958167;28;20197;-72
2022/07/03 03:39:29;;;;;;;2.73;1.77;;;17.60;99.90;;;;;;4958274;28;20658;-73
2022/07/03 03:41:56;;;;;;;4.17;1.80;;;17.60;99.90;;;;;;4958322;28;20198;-73
2022/07/03 03:44:24;;;;;;;2.97;1.60;;;17.50;99.90;;;;;;4958282;28;20205;-75
2022/07/03 03:46:51;;;;;;;3.07;1.60;;;17.50;99.90;;;;;;4975734;28;20609;-75
2022/07/03 03:49:18;;;;;;;5.33;2.00;;;17.50;99.90;;;;;;4958233;28;20197;-71
2022/07/03 03:51:45;;;;;;;4.07;2.00;;;17.60;99.90;;;;;;4957148;28;20200;-72
2022/07/03 03:54:12;;;;;;;3.80;2.00;;;17.60;99.90;;;;;;4957765;28;20205;-79
2022/07/03 03:56:39;;;;;;;4.50;1.97;;;17.50;99.90;;;;;;4957820;28;20193;-75
2022/07/03 03:59:06;;;;;;;4.20;2.00;;;17.50;99.90;;;;;;4975040;28;20224;-70
2022/07/03 04:01:33;;;;;;;3.93;1.90;;;17.50;99.90;;;;;;4975403;28;20283;-71
2022/07/03 04:04:00;;;;;;;2.80;1.80;;;17.50;99.90;;;;;;4957831;28;20202;-71
2022/07/03 04:06:27;;;;;;;3.63;1.87;;;17.50;99.90;;;;;;4957652;28;20193;-73
2022/07/03 04:08:54;;;;;;;3.60;1.80;;;17.60;99.90;;;;;;4957548;28;20251;-72
2022/07/03 04:11:21;;;;;;;2.37;1.90;;;17.60;99.90;;;;;;4957810;28;20558;-71
2022/07/03 04:13:48;;;;;;;4.67;2.30;;;17.60;99.90;;;;;;4974863;28;20226;-71
2022/07/03 04:16:15;;;;;;;3.47;1.97;;;17.70;99.90;;;;;;4974793;28;20209;-72
2022/07/03 04:18:43;;;;;;;4.33;2.00;;;17.70;99.90;;;;;;4974615;28;20213;-73
2022/07/03 04:21:10;;;;;;;4.43;1.83;;;17.70;99.90;;;;;;4974760;28;20209;-72
2022/07/03 04:23:36;;;;;;;2.67;1.93;;;17.80;99.90;;;;;;4957404;28;20211;-72
2022/07/03 04:26:04;;;;;;;3.43;1.67;;;17.90;99.90;;;;;;4957529;28;20217;-78
2022/07/03 04:28:32;;;;;;;5.10;1.50;;;17.90;99.90;;;;;;4957840;28;20204;-77
2022/07/03 04:30:59;;;;;;;7.57;1.93;;;18.00;99.90;;;;;;4958167;28;20296;-83
2022/07/03 04:33:26;;;;;;;4.63;1.77;;;18.00;99.90;;;;;;4957605;28;20197;-81
2022/07/03 04:35:53;;;;;;;4.70;2.10;;;18.00;99.90;;;;;;4957412;28;20260;-77
2022/07/03 04:38:20;;;;;;;4.07;1.80;;;18.10;99.90;;;;;;4956966;28;20217;-79
2022/07/03 04:40:47;;;;;;;4.60;1.67;;;18.10;99.90;;;;;;4957151;28;20205;-71
2022/07/03 04:43:16;;;;;;;8.30;2.07;;;18.20;99.90;;;;;;4957150;28;20247;-72
2022/07/03 04:45:43;;;;;;;4.10;1.50;;;18.20;99.90;;;;;;4956522;28;20674;-71
2022/07/03 04:48:10;;;;;;;6.43;2.00;;;18.20;99.90;;;;;;4956847;28;20225;-74
2022/07/03 04:50:37;;;;;;;6.20;1.80;;;18.30;99.90;;;;;;4957016;28;20204;-71
2022/07/03 04:53:05;;;;;;;3.70;1.80;;;18.30;99.90;;;;;;4974340;28;20194;-71
2022/07/03 04:55:32;;;;;;;5.03;1.53;;;18.30;99.90;;;;;;4974379;28;20703;-71
2022/07/03 04:57:59;;;;;;;3.17;1.60;;;18.30;99.90;;;;;;4956943;28;20227;-76
2022/07/03 05:00:26;;;;;;;3.40;1.60;;;18.30;99.90;;;;;;4974386;28;20200;-73
2022/07/03 05:02:53;;;;;;;2.80;1.50;;;18.40;99.90;;;;;;4957050;28;20212;-73
2022/07/03 05:05:20;;;;;;;4.77;1.93;;;18.40;99.90;;;;;;4960966;28;20209;-75
2022/07/03 05:07:47;;;;;;;5.70;1.60;;;18.40;99.90;;;;;;4960895;28;20674;-73
2022/07/03 05:10:14;;;;;;;3.33;1.40;;;18.50;99.90;;;;;;4960929;28;20284;-73
2022/07/03 05:12:41;;;;;;;2.27;1.33;;;18.60;99.90;;;;;;4958047;29;20699;-76
2022/07/03 05:15:08;;;;;;;3.30;1.60;;;18.60;99.90;;;;;;4958606;29;20198;-79
2022/07/03 05:17:35;;;;;;;4.63;1.60;;;18.60;99.90;;;;;;4958433;29;20308;-77
2022/07/03 05:22:54;;;;;;;4.03;1.60;;;18.70;99.90;;;;;;4957621;29;20656;-83
2022/07/03 05:25:21;;;;;;;3.90;1.40;;;18.70;99.90;;;;;;4958931;28;20285;-72
2022/07/03 05:27:50;;;;;;;6.17;1.67;;;18.80;99.90;;;;;;4958755;29;20300;-82
2022/07/03 05:30:17;;;;;;;3.07;1.57;;;18.80;99.90;;;;;;4957720;29;20191;-83
2022/07/03 05:32:44;;;;;;;2.73;1.90;;;18.80;99.90;;;;;;4958618;29;20618;-81
2022/07/03 05:35:12;;;;;;;3.13;1.47;;;18.90;99.90;;;;;;4957241;29;20293;-86
2022/07/03 05:37:39;;;;;;;5.40;1.70;;;19.00;99.90;;;;;;4957994;29;20202;-85
2022/07/03 05:40:06;;;;;;;3.07;1.40;;;19.00;99.90;;;;;;4958418;28;20218;-76
2022/07/03 05:42:33;;;;;;;2.50;1.30;;;19.10;99.90;;;;;;4957186;29;20187;-85
2022/07/03 05:45:01;;;;;;;2.27;1.27;;;19.00;99.90;;;;;;4958956;28;20277;-82
2022/07/03 05:47:28;;;;;;;4.60;1.67;;;19.10;99.90;;;;;;4956943;28;20261;-82
2022/07/03 05:49:55;;;;;;;4.63;1.43;;;19.20;99.90;;;;;;4958929;29;20606;-78
2022/07/03 05:52:22;;;;;;;3.33;1.20;;;19.30;99.90;;;;;;4956889;29;20198;-83
2022/07/03 05:54:49;;;;;;;5.07;1.80;;;19.40;99.90;;;;;;4957013;29;20249;-84
2022/07/03 05:57:16;;;;;;;4.33;1.50;;;19.40;99.90;;;;;;4956997;29;20190;-82
2022/07/03 05:59:43;;;;;;;4.47;1.80;;;19.40;99.90;;;;;;4957434;28;20587;-84
2022/07/03 06:02:10;;;;;;;2.57;1.37;;;19.50;99.90;;;;;;4957440;29;20612;-84
2022/07/03 06:04:37;;;;;;;4.00;1.90;;;19.50;99.90;;;;;;4956770;29;20217;-82
2022/07/03 06:07:04;;;;;;;5.20;1.97;;;19.60;99.90;;;;;;4956771;29;20202;-74
2022/07/03 06:09:31;;;;;;;6.73;1.70;;;19.50;99.90;;;;;;4956613;29;20281;-79
2022/07/03 06:11:58;;;;;;;5.53;1.80;;;19.70;99.90;;;;;;4956619;28;20293;-76
2022/07/03 06:14:25;;;;;;;3.80;1.50;;;19.70;99.90;;;;;;4959270;28;20285;-71
2022/07/03 06:16:52;;;;;;;3.47;1.37;;;19.90;99.90;;;;;;4960051;28;20240;-86
2022/07/03 06:19:19;;;;;;;4.60;1.53;;;19.90;99.90;;;;;;4977498;28;20217;-79
2022/07/03 06:21:46;;;;;;;3.27;1.40;;;19.90;99.90;;;;;;4960856;28;20281;-79
2022/07/03 06:24:13;;;;;;;7.37;1.47;;;19.90;99.90;;;;;;4961186;28;20662;-74
2022/07/03 06:26:39;;;;;;;9.40;3.13;;;19.90;99.90;;;;;;4977402;28;20702;-74
2022/07/03 06:29:06;;;;;;;2.87;1.27;;;20.10;99.90;;;;;;4959656;28;20292;-78
2022/07/03 06:31:33;;;;;;;3.13;1.47;;;20.10;99.90;;;;;;4959358;28;20208;-77
2022/07/03 06:34:00;;;;;;;5.20;1.40;;;20.10;99.90;;;;;;4960295;28;20193;-74
2022/07/03 06:36:27;;;;;;;2.90;1.13;;;20.20;99.90;;;;;;4959857;28;20194;-74
2022/07/03 06:38:54;;;;;;;4.23;1.17;;;20.20;99.90;;;;;;4959131;28;20317;-73
2022/07/03 06:41:21;;;;;;;3.23;1.30;;;20.30;99.90;;;;;;4976572;28;20193;-73
2022/07/03 06:43:47;;;;;;;2.27;1.10;;;20.40;99.90;;;;;;4959440;28;20220;-74
2022/07/03 06:46:14;;;;;;;6.70;1.33;;;20.40;99.90;;;;;;4959650;28;20224;-75
2022/07/03 06:48:41;;;;;;;3.17;1.13;;;20.30;99.90;;;;;;4959281;28;20240;-72
2022/07/03 06:51:08;;;;;;;2.73;1.17;;;20.40;99.90;;;;;;4976616;28;20227;-72
2022/07/03 06:53:42;;;;;;;2.97;1.13;;;20.50;99.90;;;;;;4959003;28;20201;-77
2022/07/03 06:56:09;;;;;;;3.27;1.20;;;20.50;99.90;;;;;;4959398;28;20308;-71
2022/07/03 06:58:35;;;;;;;3.40;1.10;;;20.60;99.90;;;;;;4976061;28;20205;-72
2022/07/03 07:01:02;;;;;;;2.20;1.03;;;20.60;99.90;;;;;;4976322;28;20197;-71
2022/07/03 07:03:29;;;;;;;2.63;1.30;;;20.70;99.90;;;;;;4975846;28;20201;-73
2022/07/03 07:05:57;;;;;;;5.13;1.20;;;20.70;99.90;;;;;;4976156;28;20248;-72
2022/07/03 07:08:24;;;;;;;3.00;1.23;;;20.70;99.90;;;;;;4958968;28;20655;-74
2022/07/03 07:10:51;;;;;;;2.27;1.00;;;20.70;99.90;;;;;;4959051;28;20300;-71
2022/07/03 07:13:17;;;;;;;1.77;1.07;;;20.70;99.90;;;;;;4957981;28;20251;-74
2022/07/03 07:15:44;;;;;;;2.30;1.13;;;20.70;99.90;;;;;;4958887;28;20297;-72
2022/07/03 07:18:11;;;;;;;4.07;1.33;;;20.80;99.90;;;;;;4975660;28;20225;-73
2022/07/03 07:20:38;;;;;;;2.73;1.13;;;20.90;99.90;;;;;;4958413;28;20264;-73
2022/07/03 07:23:06;;;;;;;4.30;1.23;;;21.00;99.90;;;;;;4975966;28;20181;-74
2022/07/03 07:25:33;;;;;;;2.80;1.00;;;21.00;99.90;;;;;;4957989;28;20209;-70
2022/07/03 07:27:59;;;;;;;3.30;1.00;;;20.90;99.90;;;;;;4975805;28;20256;-72
2022/07/03 07:30:26;;;;;;;4.47;1.43;;;21.00;99.90;;;;;;4958649;28;20211;-72
2022/07/03 07:32:53;;;;;;;3.03;1.10;;;21.00;99.90;;;;;;4975665;28;20248;-71
2022/07/03 07:35:20;;;;;;;7.43;1.57;;;21.10;99.90;;;;;;4976110;28;20564;-71
2022/07/03 07:37:48;;;;;;;2.83;1.10;;;21.20;99.90;;;;;;4958561;28;20211;-74
2022/07/03 07:40:15;;;;;;;5.50;1.23;;;21.20;99.90;;;;;;4958235;28;20684;-72
2022/07/03 07:42:42;;;;;;;4.10;1.60;;;21.30;99.90;;;;;;4975168;28;20221;-72
2022/07/03 07:45:10;;;;;;;4.47;1.50;;;21.30;99.90;;;;;;4958145;28;20252;-72
2022/07/03 07:47:37;;;;;;;5.27;1.20;;;21.30;99.90;;;;;;4957807;28;20687;-74
2022/07/03 07:50:06;;;;;;;4.30;1.30;;;21.40;99.90;;;;;;4957873;28;20711;-72
2022/07/03 07:52:32;;;;;;;3.37;1.27;;;21.40;99.90;;;;;;4957872;28;20703;-72
2022/07/03 07:54:59;;;;;;;4.27;1.30;;;21.30;99.90;;;;;;4957668;28;20669;-72
2022/07/03 07:57:37;;;;;;;2.23;1.00;;;21.40;99.90;;;;;;4958204;28;20202;-70
2022/07/03 08:00:11;;;;;;;4.47;1.13;;;21.60;99.90;;;;;;4958065;28;20771;-71
2022/07/03 08:05:36;;;;;;;2.57;1.30;;;21.80;99.90;;;;;;4958515;28;20229;-79
2022/07/03 08:08:14;;;;;;;1.83;1.20;;;21.80;99.90;;;;;;4975456;28;20233;-85
2022/07/03 08:10:49;;;;;;;11.23;1.67;;;21.90;99.90;;;;;;4975831;28;20189;-84
2022/07/03 08:13:18;;;;;;;2.20;1.30;;;22.00;99.90;;;;;;4978420;28;20553;-82
2022/07/03 08:15:49;;;;;;;5.53;1.30;;;21.90;99.90;;;;;;4978217;28;20221;-79
2022/07/03 08:18:16;;;;;;;6.23;1.73;;;22.00;99.90;;;;;;4959100;28;20297;-76
2022/07/03 08:20:43;;;;;;;3.47;1.40;;;22.10;99.90;;;;;;4959157;28;20235;-73
2022/07/03 08:23:10;;;;;;;1.90;1.10;;;22.10;99.90;;;;;;4957858;28;20289;-76
2022/07/03 08:25:37;;;;;;;2.50;1.20;;;22.20;99.90;;;;;;4959155;28;20209;-70
2022/07/03 08:28:04;;;;;;;4.00;1.20;;;22.50;99.90;;;;;;4958864;28;20615;-71
2022/07/03 08:30:31;;;;;;;6.33;1.70;;;23.20;99.90;;;;;;4957452;28;20213;-72
2022/07/03 08:32:59;;;;;;;1.88;1.02;;;24.10;99.90;;;;;;4957959;28;20305;-72
2022/07/03 08:35:27;;;;;;;2.00;1.30;;;25.00;99.90;;;;;;4974871;28;20198;-73
2022/07/03 08:37:54;;;;;;;2.78;1.10;;;25.50;99.90;;;;;;4956847;28;20300;-74
2022/07/03 08:40:21;;;;;;;1.58;1.15;;;25.90;99.90;;;;;;4956957;28;20248;-71
2022/07/03 08:42:52;;;;;;;3.72;1.20;;;26.40;99.90;;;;;;4956804;28;20197;-72
2022/07/03 08:45:21;;;;;;;2.55;1.17;;;26.60;99.90;;;;;;4957037;28;20212;-71
2022/07/03 08:47:49;;;;;;;3.10;1.10;;;27.00;99.90;;;;;;4956770;28;20272;-72
2022/07/03 08:50:18;;;;;;;2.55;1.20;;;27.20;99.90;;;;;;4957526;28;20229;-71
2022/07/03 08:52:46;;;;;;;2.83;1.00;;;27.20;99.90;;;;;;4956622;28;20233;-77
2022/07/03 08:55:15;;;;;;;3.60;1.30;;;27.20;99.90;;;;;;4956942;28;20296;-76
2022/07/03 08:57:43;;;;;;;2.42;1.10;;;27.60;99.90;;;;;;4957288;28;20241;-77
2022/07/03 09:00:16;;;;;;;5.60;1.30;;;28.00;99.50;;;;;;4957131;28;20316;-72
2022/07/03 09:02:45;;;;;;;1.67;0.90;;;28.20;97.60;;;;;;4973961;28;20200;-74
2022/07/03 09:05:13;;;;;;;2.42;1.00;;;28.10;96.00;;;;;;4956873;28;20284;-77
2022/07/03 09:07:42;;;;;;;2.30;0.80;;;28.10;96.00;;;;;;4974267;28;20190;-79
2022/07/03 09:10:13;;;;;;;3.63;1.00;;;28.00;95.50;;;;;;4956871;28;20202;-72
2022/07/03 09:12:44;;;;;;;3.25;1.02;;;28.00;93.80;;;;;;4956920;28;20201;-75
2022/07/03 09:15:11;;;;;;;1.60;1.00;;;28.20;92.60;;;;;;4958064;28;20233;-79
2022/07/03 09:17:38;;;;;;;3.45;1.00;;;28.40;93.00;;;;;;4958566;28;20596;-76
2022/07/03 09:20:07;;;;;;;3.58;1.15;;;28.60;92.60;;;;;;4956698;28;20236;-73
2022/07/03 09:22:37;;;;;;;4.68;1.20;;;28.70;92.20;;;;;;4957070;28;20203;-77
2022/07/03 09:25:09;;;;;;;2.33;0.90;;;28.90;93.60;;;;;;4956644;28;20638;-75
2022/07/03 09:27:38;;;;;;;4.45;1.05;;;28.80;91.40;;;;;;4974142;28;20197;-74
2022/07/03 09:30:09;;;;;;;2.40;1.00;;;28.60;91.80;;;;;;4956721;28;20292;-73
2022/07/03 09:32:43;;;;;;;2.38;1.00;;;28.40;90.30;;;;;;4956245;28;20205;-72
2022/07/03 09:35:27;;;;;;;2.22;0.90;;;28.10;90.60;;;;;;4956545;28;20235;-71
2022/07/03 09:37:56;;;;;;;2.05;1.00;;;28.50;91.60;;;;;;4973871;28;20220;-70
2022/07/03 09:40:25;;;;;;;1.85;0.77;;;28.70;89.20;;;;;;4956647;28;20762;-72
2022/07/03 09:43:05;;;;;;;1.67;0.93;;;29.00;88.90;;;;;;4972550;28;20207;-82
2022/07/03 09:46:11;;;;;;;5.15;1.40;;;29.00;87.70;;;;;;4956549;28;20288;-83
2022/07/03 09:48:42;;;;;;;1.60;1.00;;;28.90;89.90;;;;;;4917353;29;20210;-80
2022/07/03 09:51:08;;;;;;;1.75;1.00;;;28.90;90.00;;;;;;4921165;29;20302;-80
2022/07/03 09:53:56;;;;;;;2.63;1.10;;;28.80;87.30;;;;;;4936829;29;20210;-82
2022/07/03 09:56:26;;;;;;;2.58;1.10;;;28.90;87.80;;;;;;4936950;29;20198;-85
2022/07/03 09:59:03;;;;;;;3.25;1.30;;;29.10;88.80;;;;;;4936716;29;20606;-84
2022/07/03 10:01:31;;;;;;;2.17;1.10;;;29.60;89.20;;;;;;4920806;29;20635;-83
2022/07/03 10:04:18;;;;;;;3.17;1.13;;;29.70;84.80;;;;;;4920876;29;20683;-84
2022/07/03 10:06:52;;;;;;;2.90;1.30;;;29.30;86.50;;;;;;4920861;29;20217;-84
2022/07/03 10:09:21;;;;;;;2.92;1.27;;;29.10;84.40;;;;;;4921211;29;20597;-85
2022/07/03 10:11:49;;;;;;;2.42;1.20;;;29.20;86.10;;;;;;4920986;29;20294;-87
2022/07/03 10:14:18;;;;;;;2.20;1.10;;;29.40;87.80;;;;;;4936828;29;20322;-83
2022/07/03 10:16:46;;;;;;;2.80;0.80;;;29.70;82.80;;;;;;4936526;29;20282;-85
2022/07/03 10:19:18;;;;;;;1.33;0.90;;;30.00;84.90;;;;;;4953473;28;20213;-83
2022/07/03 10:21:54;;;;;;;2.90;0.93;;;30.20;80.20;;;;;;4977201;28;20240;-82
2022/07/03 10:24:23;;;;;;;1.00;0.80;;;30.30;79.50;;;;;;4959821;28;20236;-87
2022/07/03 10:26:52;;;;;;;5.97;1.48;;;30.50;78.30;;;;;;4977605;28;20301;-86
2022/07/03 10:29:26;;;;;;;1.60;0.90;;;30.70;77.20;;;;;;4959675;28;20205;-87
2022/07/03 10:31:56;;;;;;;2.67;1.10;;;30.80;74.80;;;;;;4959690;28;20284;-72
2022/07/03 10:34:25;;;;;;;3.03;1.20;;;30.70;74.00;;;;;;4959462;28;20288;-83
2022/07/03 10:37:03;;;;;;;1.95;1.20;;;30.50;74.00;;;;;;4975345;28;20225;-80
2022/07/03 10:39:39;;;;;;;2.90;0.80;;;30.50;75.70;;;;;;4976742;28;20252;-76
2022/07/03 10:45:09;;;;;;;2.40;0.90;;;32.00;76.90;;;;;;4977041;28;20703;-82
2022/07/03 10:47:39;;;;;;;2.75;1.20;;;32.50;72.40;;;;;;4959265;28;20253;-86
2022/07/03 10:50:11;;;;;;;4.00;1.30;;;32.70;71.30;;;;;;4959357;28;20285;-86
2022/07/03 10:52:39;;;;;;;2.13;1.00;;;32.90;71.00;;;;;;4959428;28;20630;-85
2022/07/03 10:55:07;;;;;;;1.83;1.00;;;33.00;70.50;;;;;;4976657;28;20216;-85
2022/07/03 10:57:36;;;;;;;1.80;0.88;;;33.30;67.60;;;;;;4976474;28;20190;-73
2022/07/03 11:00:16;;;;;;;1.98;1.05;;;33.40;66.60;;;;;;4976062;28;20311;-75
2022/07/03 11:02:49;;;;;;;2.25;1.00;;;33.80;65.90;;;;;;4959578;28;20240;-72
2022/07/03 11:05:19;;;;;;;1.83;0.90;;;33.10;66.10;;;;;;4960423;28;20208;-73
2022/07/03 11:07:50;;;;;;;4.65;1.17;;;33.20;67.40;;;;;;4959430;28;20204;-74
2022/07/03 11:10:17;;;;;;;5.35;1.52;;;33.30;65.50;;;;;;4959594;28;20294;-72
2022/07/03 11:13:01;;;;;;;3.28;1.02;;;33.60;65.30;;;;;;4958944;28;20205;-74
2022/07/03 11:15:37;;;;;;;2.42;0.90;;;33.50;62.10;;;;;;4960225;28;20205;-75
2022/07/03 11:18:15;;;;;;;2.58;0.95;;;33.90;62.20;;;;;;4959573;28;20296;-77
2022/07/03 11:20:42;;;;;;;6.60;1.20;;;34.10;61.20;;;;;;4960253;28;20249;-81
2022/07/03 11:23:27;;;;;;;2.75;1.00;;;34.30;58.70;;;;;;4960637;28;20644;-78
2022/07/03 11:26:04;;;;;;;1.45;0.85;;;33.50;57.90;;;;;;4976064;28;20228;-74
2022/07/03 11:28:32;;;;;;;5.88;1.08;;;33.40;61.10;;;;;;4958655;28;20206;-80
2022/07/03 11:31:11;;;;;;;4.07;1.05;;;33.10;59.50;;;;;;4942724;28;20252;-79
2022/07/03 11:33:53;;;;;;;3.30;1.20;;;32.90;59.60;;;;;;4976534;28;20197;-78
2022/07/03 11:36:33;;;;;;;1.77;1.00;;;33.50;60.30;;;;;;4961236;28;20198;-71
2022/07/03 11:39:00;;;;;;;3.30;1.05;;;34.10;59.50;;;;;;4958617;28;20575;-77
2022/07/03 11:41:36;;;;;;;2.05;0.90;;;34.40;59.90;;;;;;4960621;28;20264;-77
2022/07/03 11:44:06;;;;;;;3.17;0.90;;;34.90;58.20;;;;;;4977037;28;20281;-79
2022/07/03 11:46:35;;;;;;;2.92;1.00;;;35.30;58.00;;;;;;4958267;28;20654;-72
2022/07/03 11:49:22;;;;;;;4.50;1.40;;;35.30;57.10;;;;;;4959098;28;20293;-78
2022/07/03 11:52:01;;;;;;;2.83;0.90;;;35.40;56.90;;;;;;4958477;28;20244;-72
2022/07/03 11:54:48;;;;;;;1.13;0.75;;;35.50;54.80;;;;;;4958724;28;20300;-81
2022/07/03 11:57:15;;;;;;;1.30;0.90;;;35.30;56.10;;;;;;4957815;28;20201;-75
2022/07/03 11:59:42;;;;;;;1.35;0.70;;;35.30;56.60;;;;;;4957609;28;20256;-72
2022/07/03 12:02:09;;;;;;;1.52;0.88;;;35.80;57.10;;;;;;4957878;28;20193;-72
2022/07/03 12:04:39;;;;;;;3.28;0.90;;;36.10;54.90;;;;;;4957749;28;20225;-73
2022/07/03 12:07:06;;;;;;;2.13;1.00;;;36.20;55.90;;;;;;4958531;28;20637;-73
2022/07/03 12:09:36;;;;;;;1.88;0.77;;;36.10;56.00;;;;;;4957848;28;20301;-71
2022/07/03 12:12:07;;;;;;;2.10;0.90;;;36.20;55.60;;;;;;4957138;28;20261;-71
2022/07/03 12:14:49;;;;;;;1.38;0.82;;;36.40;54.10;;;;;;4957630;28;20606;-70
2022/07/03 12:17:25;;;;;;;2.03;0.88;;;37.00;54.00;;;;;;4957973;28;20683;-74
2022/07/03 12:19:53;;;;;;;1.75;1.00;;;37.00;54.20;;;;;;4974751;28;20241;-72
2022/07/03 12:22:34;;;;;;;1.77;0.98;;;36.20;53.10;;;;;;4974790;28;20604;-71
2022/07/03 12:25:06;;;;;;;3.25;1.10;;;36.00;55.00;;;;;;4957618;28;20308;-73
2022/07/03 12:27:39;;;;;;;1.23;0.85;;;36.30;54.70;;;;;;4957546;28;20209;-73
2022/07/03 12:30:08;;;;;;;1.30;0.60;;;36.30;55.30;;;;;;4957430;28;20538;-71
2022/07/03 12:32:36;;;;;;;1.45;0.90;;;36.30;54.60;;;;;;4957152;28;20209;-71
2022/07/03 12:35:03;;;;;;;2.40;0.80;;;36.50;54.80;;;;;;4957257;28;20293;-76
2022/07/03 12:37:32;;;;;;;2.88;1.08;;;36.30;54.90;;;;;;4957483;28;20217;-72
2022/07/03 12:39:59;;;;;;;1.45;0.90;;;36.00;54.10;;;;;;4957324;28;20308;-72
2022/07/03 12:42:26;;;;;;;3.15;0.80;;;35.40;54.80;;;;;;4957529;28;20196;-73
2022/07/03 12:45:01;;;;;;;2.10;0.90;;;34.80;55.30;;;;;;4957085;28;20197;-72
2022/07/03 12:47:30;;;;;;;3.63;1.00;;;34.30;56.40;;;;;;4957310;28;20216;-72
2022/07/03 12:50:00;;;;;;;1.23;1.00;;;33.80;56.70;;;;;;4974575;28;20292;-72
2022/07/03 12:52:32;;;;;;;1.70;1.10;;;32.90;57.90;;;;;;4956923;28;20205;-73
2022/07/03 12:55:01;;;;;;;1.15;0.85;;;32.60;59.10;;;;;;4957442;28;20300;-72
2022/07/03 13:00:19;;;;;;;2.83;0.90;;;34.30;58.80;;;;;;4974274;28;20225;-75
2022/07/03 13:02:48;;;;;;;1.67;1.05;;;34.60;57.10;;;;;;4957299;28;20240;-75
2022/07/03 13:05:24;;;;;;;3.13;1.15;;;34.50;57.20;;;;;;4974513;28;20198;-75
2022/07/03 13:07:53;;;;;;;3.40;1.10;;;34.10;57.80;;;;;;4957250;28;20681;-72
2022/07/03 13:10:22;;;;;;;4.10;2.00;;;33.50;58.90;;;;;;4974285;28;20198;-73
2022/07/03 13:12:51;;;;;;;1.50;1.00;;;32.90;59.40;;;;;;4956631;28;20205;-74
2022/07/03 13:15:19;;;;;;;5.07;1.13;;;32.30;59.40;;;;;;4956793;28;20236;-72
2022/07/03 13:17:55;;;;;;;2.10;1.00;;;32.20;61.00;;;;;;4957155;28;20197;-75